Chaflin Bridge, Illinois
Current Conditions -  °F | °C
As of 8:55 PM on Monday 22 Dec 2014 (Local Time) from KSAR Reporting Station
Light Rain Light Rain  
Wind Chill: 51°   Ceiling: 600
Heat Index: 51°   Visibility: 7mi
Dew Point: 50°   Wind: 9mph
Humidity: 97%   Direction: 190°S
Pressure: 29.58"   Gusts: NA
Location:  38.164°N, 90.1984°W
Report Text: KSAR 230255Z AUTO 19008KT 7SM -RA OVC006 11/10 A2958 RMK AO2 P0001 60005 T01050101
Loading
Personal Weather Stations






























Interactive Weather Map New forecast layout! Learn more

10-Day Weather Forecast

Advertisements
Track Severe Weather on mobile